sensor_id;sensor_type;location;lat;lon;timestamp;temperature;humidity
39519;DHT22;25200;53.394;10.414;2022-11-12T00:00:59;7.40;85.70
39519;DHT22;25200;53.394;10.414;2022-11-12T00:03:25;7.40;85.80
39519;DHT22;25200;53.394;10.414;2022-11-12T00:05:51;7.40;85.90
39519;DHT22;25200;53.394;10.414;2022-11-12T00:08:18;7.40;86.00
39519;DHT22;25200;53.394;10.414;2022-11-12T00:10:44;7.40;85.90
39519;DHT22;25200;53.394;10.414;2022-11-12T00:13:10;7.30;85.70
39519;DHT22;25200;53.394;10.414;2022-11-12T00:15:36;7.30;86.10
39519;DHT22;25200;53.394;10.414;2022-11-12T00:18:01;7.30;85.80
39519;DHT22;25200;53.394;10.414;2022-11-12T00:20:27;7.30;86.20
39519;DHT22;25200;53.394;10.414;2022-11-12T00:22:53;7.30;85.70
39519;DHT22;25200;53.394;10.414;2022-11-12T00:25:18;7.20;85.80
39519;DHT22;25200;53.394;10.414;2022-11-12T00:27:44;7.20;85.60
39519;DHT22;25200;53.394;10.414;2022-11-12T00:30:11;7.30;85.90
39519;DHT22;25200;53.394;10.414;2022-11-12T00:32:36;7.20;86.00
39519;DHT22;25200;53.394;10.414;2022-11-12T00:35:04;7.20;85.80
39519;DHT22;25200;53.394;10.414;2022-11-12T00:37:33;7.20;85.80
39519;DHT22;25200;53.394;10.414;2022-11-12T00:39:58;7.20;85.70
39519;DHT22;25200;53.394;10.414;2022-11-12T00:42:24;7.20;85.70
39519;DHT22;25200;53.394;10.414;2022-11-12T00:44:50;7.10;85.70
39519;DHT22;25200;53.394;10.414;2022-11-12T00:47:16;7.10;85.60
39519;DHT22;25200;53.394;10.414;2022-11-12T00:49:41;7.20;85.80
39519;DHT22;25200;53.394;10.414;2022-11-12T00:52:07;7.10;85.90
39519;DHT22;25200;53.394;10.414;2022-11-12T00:54:33;7.10;85.80
39519;DHT22;25200;53.394;10.414;2022-11-12T00:56:58;7.10;85.70
39519;DHT22;25200;53.394;10.414;2022-11-12T00:59:25;7.10;85.50
39519;DHT22;25200;53.394;10.414;2022-11-12T01:01:50;7.10;85.80
39519;DHT22;25200;53.394;10.414;2022-11-12T01:04:16;7.10;85.90
39519;DHT22;25200;53.394;10.414;2022-11-12T01:06:41;7.00;86.10
39519;DHT22;25200;53.394;10.414;2022-11-12T01:09:08;7.00;86.20
39519;DHT22;25200;53.394;10.414;2022-11-12T01:11:34;7.00;86.30
39519;DHT22;25200;53.394;10.414;2022-11-12T01:14:02;7.00;86.50
39519;DHT22;25200;53.394;10.414;2022-11-12T01:16:33;7.10;86.70
39519;DHT22;25200;53.394;10.414;2022-11-12T01:19:03;7.00;86.60
39519;DHT22;25200;53.394;10.414;2022-11-12T01:21:30;7.10;86.90
39519;DHT22;25200;53.394;10.414;2022-11-12T01:23:58;7.10;87.00
39519;DHT22;25200;53.394;10.414;2022-11-12T01:26:25;7.10;86.60
39519;DHT22;25200;53.394;10.414;2022-11-12T01:28:53;7.10;86.40
39519;DHT22;25200;53.394;10.414;2022-11-12T01:33:47;7.10;86.60
39519;DHT22;25200;53.394;10.414;2022-11-12T01:36:16;7.10;86.70
39519;DHT22;25200;53.394;10.414;2022-11-12T01:38:43;7.10;86.70
39519;DHT22;25200;53.394;10.414;2022-11-12T01:41:11;7.20;87.10
39519;DHT22;25200;53.394;10.414;2022-11-12T01:43:37;7.20;86.50
39519;DHT22;25200;53.394;10.414;2022-11-12T01:46:21;7.30;87.10
39519;DHT22;25200;53.394;10.414;2022-11-12T01:48:50;7.30;87.20
39519;DHT22;25200;53.394;10.414;2022-11-12T01:51:19;7.40;86.40
39519;DHT22;25200;53.394;10.414;2022-11-12T01:53:46;7.40;86.40
39519;DHT22;25200;53.394;10.414;2022-11-12T01:56:14;7.50;86.70
39519;DHT22;25200;53.394;10.414;2022-11-12T01:58:41;7.50;87.00
39519;DHT22;25200;53.394;10.414;2022-11-12T02:01:08;7.50;86.50
39519;DHT22;25200;53.394;10.414;2022-11-12T02:03:34;7.50;86.80
39519;DHT22;25200;53.394;10.414;2022-11-12T02:06:06;7.60;86.20
39519;DHT22;25200;53.394;10.414;2022-11-12T02:08:33;7.60;86.10
39519;DHT22;25200;53.394;10.414;2022-11-12T02:11:14;7.60;87.10
39519;DHT22;25200;53.394;10.414;2022-11-12T02:13:41;7.60;86.90
39519;DHT22;25200;53.394;10.414;2022-11-12T02:16:37;7.70;86.70
39519;DHT22;25200;53.394;10.414;2022-11-12T02:19:06;7.70;87.00
39519;DHT22;25200;53.394;10.414;2022-11-12T02:21:33;7.70;87.40
39519;DHT22;25200;53.394;10.414;2022-11-12T02:24:04;7.70;87.10
39519;DHT22;25200;53.394;10.414;2022-11-12T02:26:36;7.80;87.50
39519;DHT22;25200;53.394;10.414;2022-11-12T02:29:03;7.80;87.80
39519;DHT22;25200;53.394;10.414;2022-11-12T02:31:29;7.80;87.90
39519;DHT22;25200;53.394;10.414;2022-11-12T02:33:55;7.80;87.10
39519;DHT22;25200;53.394;10.414;2022-11-12T02:36:20;7.80;87.30
39519;DHT22;25200;53.394;10.414;2022-11-12T02:38:46;7.90;87.60
39519;DHT22;25200;53.394;10.414;2022-11-12T02:41:12;7.90;87.40
39519;DHT22;25200;53.394;10.414;2022-11-12T02:43:38;7.90;86.90
39519;DHT22;25200;53.394;10.414;2022-11-12T02:46:04;7.90;87.70
39519;DHT22;25200;53.394;10.414;2022-11-12T02:48:31;7.90;86.90
39519;DHT22;25200;53.394;10.414;2022-11-12T02:50:56;8.00;88.10
39519;DHT22;25200;53.394;10.414;2022-11-12T02:53:22;8.00;87.60
39519;DHT22;25200;53.394;10.414;2022-11-12T02:55:47;8.00;87.70
39519;DHT22;25200;53.394;10.414;2022-11-12T02:58:13;8.00;88.00
39519;DHT22;25200;53.394;10.414;2022-11-12T03:00:39;8.00;87.40
39519;DHT22;25200;53.394;10.414;2022-11-12T03:03:04;8.00;88.10
39519;DHT22;25200;53.394;10.414;2022-11-12T03:05:32;8.00;88.00
39519;DHT22;25200;53.394;10.414;2022-11-12T03:08:03;8.00;87.70
39519;DHT22;25200;53.394;10.414;2022-11-12T03:10:29;8.10;87.90
39519;DHT22;25200;53.394;10.414;2022-11-12T03:12:57;8.10;88.30
39519;DHT22;25200;53.394;10.414;2022-11-12T03:15:23;8.10;88.30
39519;DHT22;25200;53.394;10.414;2022-11-12T03:17:48;8.10;87.20
39519;DHT22;25200;53.394;10.414;2022-11-12T03:20:14;8.10;88.40
39519;DHT22;25200;53.394;10.414;2022-11-12T03:22:40;8.10;88.30
39519;DHT22;25200;53.394;10.414;2022-11-12T03:25:07;8.10;88.10
39519;DHT22;25200;53.394;10.414;2022-11-12T03:27:33;8.10;88.20
39519;DHT22;25200;53.394;10.414;2022-11-12T03:29:59;8.10;88.60
39519;DHT22;25200;53.394;10.414;2022-11-12T03:32:25;8.20;88.20
39519;DHT22;25200;53.394;10.414;2022-11-12T03:34:50;8.20;87.90
39519;DHT22;25200;53.394;10.414;2022-11-12T03:37:16;8.20;88.40
39519;DHT22;25200;53.394;10.414;2022-11-12T03:39:42;8.20;88.90
39519;DHT22;25200;53.394;10.414;2022-11-12T03:42:08;8.20;89.00
39519;DHT22;25200;53.394;10.414;2022-11-12T03:44:34;8.20;88.20
39519;DHT22;25200;53.394;10.414;2022-11-12T03:46:59;8.30;87.70
39519;DHT22;25200;53.394;10.414;2022-11-12T03:49:25;8.20;88.50
39519;DHT22;25200;53.394;10.414;2022-11-12T03:51:50;8.30;88.20
39519;DHT22;25200;53.394;10.414;2022-11-12T03:54:16;8.30;88.30
39519;DHT22;25200;53.394;10.414;2022-11-12T03:56:42;8.30;88.70
39519;DHT22;25200;53.394;10.414;2022-11-12T03:59:07;8.30;88.20
39519;DHT22;25200;53.394;10.414;2022-11-12T04:01:33;8.30;88.10
39519;DHT22;25200;53.394;10.414;2022-11-12T04:03:59;8.30;88.40
39519;DHT22;25200;53.394;10.414;2022-11-12T04:06:24;8.30;88.30
39519;DHT22;25200;53.394;10.414;2022-11-12T04:09:08;8.30;88.40
39519;DHT22;25200;53.394;10.414;2022-11-12T04:11:34;8.20;88.20
39519;DHT22;25200;53.394;10.414;2022-11-12T04:14:00;8.10;88.20
39519;DHT22;25200;53.394;10.414;2022-11-12T04:16:26;8.10;87.80
39519;DHT22;25200;53.394;10.414;2022-11-12T04:19:11;8.00;88.10
39519;DHT22;25200;53.394;10.414;2022-11-12T04:22:04;7.90;88.00
39519;DHT22;25200;53.394;10.414;2022-11-12T04:24:35;7.90;88.10
39519;DHT22;25200;53.394;10.414;2022-11-12T04:27:21;7.80;87.90
39519;DHT22;25200;53.394;10.414;2022-11-12T04:29:47;7.80;88.20
39519;DHT22;25200;53.394;10.414;2022-11-12T04:32:34;7.70;88.10
39519;DHT22;25200;53.394;10.414;2022-11-12T04:35:00;7.70;88.20
39519;DHT22;25200;53.394;10.414;2022-11-12T04:37:28;7.60;88.10
39519;DHT22;25200;53.394;10.414;2022-11-12T04:39:54;7.60;87.80
39519;DHT22;25200;53.394;10.414;2022-11-12T04:42:19;7.50;87.90
39519;DHT22;25200;53.394;10.414;2022-11-12T04:45:09;7.50;87.90
39519;DHT22;25200;53.394;10.414;2022-11-12T04:47:39;7.50;88.20
39519;DHT22;25200;53.394;10.414;2022-11-12T04:50:13;7.50;87.90
39519;DHT22;25200;53.394;10.414;2022-11-12T04:52:39;7.40;87.90
39519;DHT22;25200;53.394;10.414;2022-11-12T04:55:05;7.40;87.90
39519;DHT22;25200;53.394;10.414;2022-11-12T04:57:31;7.40;87.80
39519;DHT22;25200;53.394;10.414;2022-11-12T04:59:57;7.40;87.90
39519;DHT22;25200;53.394;10.414;2022-11-12T05:02:22;7.30;87.80
39519;DHT22;25200;53.394;10.414;2022-11-12T05:04:48;7.30;88.10
39519;DHT22;25200;53.394;10.414;2022-11-12T05:07:14;7.30;87.80
39519;DHT22;25200;53.394;10.414;2022-11-12T05:09:40;7.30;87.90
39519;DHT22;25200;53.394;10.414;2022-11-12T05:12:06;7.30;87.90
39519;DHT22;25200;53.394;10.414;2022-11-12T05:14:31;7.30;87.80
39519;DHT22;25200;53.394;10.414;2022-11-12T05:16:57;7.30;87.60
39519;DHT22;25200;53.394;10.414;2022-11-12T05:19:23;7.20;87.70
39519;DHT22;25200;53.394;10.414;2022-11-12T05:21:48;7.20;88.00
39519;DHT22;25200;53.394;10.414;2022-11-12T05:24:40;7.20;87.60
39519;DHT22;25200;53.394;10.414;2022-11-12T05:27:14;7.10;87.70
39519;DHT22;25200;53.394;10.414;2022-11-12T05:29:40;7.10;87.80
39519;DHT22;25200;53.394;10.414;2022-11-12T05:32:07;7.10;87.60
39519;DHT22;25200;53.394;10.414;2022-11-12T05:34:33;7.10;87.70
39519;DHT22;25200;53.394;10.414;2022-11-12T05:37:00;7.10;87.90
39519;DHT22;25200;53.394;10.414;2022-11-12T05:39:26;7.10;87.90
39519;DHT22;25200;53.394;10.414;2022-11-12T05:41:52;7.00;87.60
39519;DHT22;25200;53.394;10.414;2022-11-12T05:44:17;7.00;88.00
39519;DHT22;25200;53.394;10.414;2022-11-12T05:46:43;7.00;87.80
39519;DHT22;25200;53.394;10.414;2022-11-12T05:49:10;7.00;87.50
39519;DHT22;25200;53.394;10.414;2022-11-12T05:51:35;7.00;87.60
39519;DHT22;25200;53.394;10.414;2022-11-12T05:54:01;7.00;87.70
39519;DHT22;25200;53.394;10.414;2022-11-12T05:56:27;7.00;87.60
39519;DHT22;25200;53.394;10.414;2022-11-12T05:58:53;7.00;87.40
39519;DHT22;25200;53.394;10.414;2022-11-12T06:01:18;7.00;87.40
39519;DHT22;25200;53.394;10.414;2022-11-12T06:03:44;7.00;87.70
39519;DHT22;25200;53.394;10.414;2022-11-12T06:06:10;6.90;87.10
39519;DHT22;25200;53.394;10.414;2022-11-12T06:08:35;6.90;87.60
39519;DHT22;25200;53.394;10.414;2022-11-12T06:11:01;6.90;87.40
39519;DHT22;25200;53.394;10.414;2022-11-12T06:13:27;6.90;87.60
39519;DHT22;25200;53.394;10.414;2022-11-12T06:15:54;6.90;87.60
39519;DHT22;25200;53.394;10.414;2022-11-12T06:18:20;6.90;87.40
39519;DHT22;25200;53.394;10.414;2022-11-12T06:20:47;6.90;87.40
39519;DHT22;25200;53.394;10.414;2022-11-12T06:23:32;6.80;87.60
39519;DHT22;25200;53.394;10.414;2022-11-12T06:25:58;6.80;87.20
39519;DHT22;25200;53.394;10.414;2022-11-12T06:28:24;6.80;87.50
39519;DHT22;25200;53.394;10.414;2022-11-12T06:30:50;6.80;87.80
39519;DHT22;25200;53.394;10.414;2022-11-12T06:33:15;6.80;87.50
39519;DHT22;25200;53.394;10.414;2022-11-12T06:35:41;6.70;87.30
39519;DHT22;25200;53.394;10.414;2022-11-12T06:38:07;6.70;87.10
39519;DHT22;25200;53.394;10.414;2022-11-12T06:40:33;6.70;87.30
39519;DHT22;25200;53.394;10.414;2022-11-12T06:42:58;6.70;87.90
39519;DHT22;25200;53.394;10.414;2022-11-12T06:45:24;6.70;87.20
39519;DHT22;25200;53.394;10.414;2022-11-12T06:47:50;6.70;87.20
39519;DHT22;25200;53.394;10.414;2022-11-12T06:50:15;6.70;87.10
39519;DHT22;25200;53.394;10.414;2022-11-12T06:52:41;6.70;87.40
39519;DHT22;25200;53.394;10.414;2022-11-12T06:55:07;6.60;87.20
39519;DHT22;25200;53.394;10.414;2022-11-12T06:57:33;6.60;87.10
39519;DHT22;25200;53.394;10.414;2022-11-12T06:59:59;6.60;87.30
39519;DHT22;25200;53.394;10.414;2022-11-12T07:02:25;6.60;87.00
39519;DHT22;25200;53.394;10.414;2022-11-12T07:04:50;6.60;87.30
39519;DHT22;25200;53.394;10.414;2022-11-12T07:07:16;6.60;87.20
39519;DHT22;25200;53.394;10.414;2022-11-12T07:09:42;6.50;87.10
39519;DHT22;25200;53.394;10.414;2022-11-12T07:12:07;6.60;87.10
39519;DHT22;25200;53.394;10.414;2022-11-12T07:14:33;6.60;87.30
39519;DHT22;25200;53.394;10.414;2022-11-12T07:16:59;6.60;87.30
39519;DHT22;25200;53.394;10.414;2022-11-12T07:19:25;6.60;87.20
39519;DHT22;25200;53.394;10.414;2022-11-12T07:21:51;6.60;87.20
39519;DHT22;25200;53.394;10.414;2022-11-12T07:24:16;6.50;87.00
39519;DHT22;25200;53.394;10.414;2022-11-12T07:26:42;6.50;87.10
39519;DHT22;25200;53.394;10.414;2022-11-12T07:29:08;6.50;87.20
39519;DHT22;25200;53.394;10.414;2022-11-12T07:31:33;6.50;87.30
39519;DHT22;25200;53.394;10.414;2022-11-12T07:33:59;6.50;87.20
39519;DHT22;25200;53.394;10.414;2022-11-12T07:36:25;6.50;87.30
39519;DHT22;25200;53.394;10.414;2022-11-12T07:38:52;6.50;87.20
39519;DHT22;25200;53.394;10.414;2022-11-12T07:41:21;6.50;87.30
39519;DHT22;25200;53.394;10.414;2022-11-12T07:43:48;6.50;87.40
39519;DHT22;25200;53.394;10.414;2022-11-12T07:48:43;6.50;87.10
39519;DHT22;25200;53.394;10.414;2022-11-12T07:51:13;6.40;87.30
39519;DHT22;25200;53.394;10.414;2022-11-12T07:53:40;6.50;87.40
39519;DHT22;25200;53.394;10.414;2022-11-12T07:56:06;6.50;87.60
39519;DHT22;25200;53.394;10.414;2022-11-12T07:58:33;6.50;87.40
39519;DHT22;25200;53.394;10.414;2022-11-12T08:01:23;6.50;87.40
39519;DHT22;25200;53.394;10.414;2022-11-12T08:03:50;6.50;87.30
39519;DHT22;25200;53.394;10.414;2022-11-12T08:06:15;6.40;87.50
39519;DHT22;25200;53.394;10.414;2022-11-12T08:08:41;6.40;87.50
39519;DHT22;25200;53.394;10.414;2022-11-12T08:11:07;6.50;87.50
39519;DHT22;25200;53.394;10.414;2022-11-12T08:13:33;6.50;87.60
39519;DHT22;25200;53.394;10.414;2022-11-12T08:15:59;6.50;87.50
39519;DHT22;25200;53.394;10.414;2022-11-12T08:18:25;6.50;87.60
39519;DHT22;25200;53.394;10.414;2022-11-12T08:20:51;6.50;87.10
39519;DHT22;25200;53.394;10.414;2022-11-12T08:23:17;6.50;87.70
39519;DHT22;25200;53.394;10.414;2022-11-12T08:25:42;6.50;87.60
39519;DHT22;25200;53.394;10.414;2022-11-12T08:28:08;6.50;87.60
39519;DHT22;25200;53.394;10.414;2022-11-12T08:30:34;6.50;87.70
39519;DHT22;25200;53.394;10.414;2022-11-12T08:33:02;6.50;87.80
39519;DHT22;25200;53.394;10.414;2022-11-12T08:35:31;6.50;87.80
39519;DHT22;25200;53.394;10.414;2022-11-12T08:38:06;6.50;88.30
39519;DHT22;25200;53.394;10.414;2022-11-12T08:40:35;6.50;87.80
39519;DHT22;25200;53.394;10.414;2022-11-12T08:43:04;6.50;87.90
39519;DHT22;25200;53.394;10.414;2022-11-12T08:45:38;6.50;88.00
39519;DHT22;25200;53.394;10.414;2022-11-12T08:48:06;6.50;87.70
39519;DHT22;25200;53.394;10.414;2022-11-12T08:50:33;6.50;87.70
39519;DHT22;25200;53.394;10.414;2022-11-12T08:53:04;6.50;88.00
39519;DHT22;25200;53.394;10.414;2022-11-12T08:55:31;6.50;88.00
39519;DHT22;25200;53.394;10.414;2022-11-12T08:57:58;6.60;88.10
39519;DHT22;25200;53.394;10.414;2022-11-12T09:00:47;6.60;88.20
39519;DHT22;25200;53.394;10.414;2022-11-12T09:03:16;6.60;87.90
39519;DHT22;25200;53.394;10.414;2022-11-12T09:05:42;6.60;88.10
39519;DHT22;25200;53.394;10.414;2022-11-12T09:08:13;6.60;88.00
39519;DHT22;25200;53.394;10.414;2022-11-12T09:10:39;6.60;88.10
39519;DHT22;25200;53.394;10.414;2022-11-12T09:13:05;6.60;88.30
39519;DHT22;25200;53.394;10.414;2022-11-12T09:15:31;6.60;88.00
39519;DHT22;25200;53.394;10.414;2022-11-12T09:18:02;6.60;88.20
39519;DHT22;25200;53.394;10.414;2022-11-12T09:20:29;6.60;88.50
39519;DHT22;25200;53.394;10.414;2022-11-12T09:23:06;6.60;88.40
39519;DHT22;25200;53.394;10.414;2022-11-12T09:25:32;6.70;88.70
39519;DHT22;25200;53.394;10.414;2022-11-12T09:28:14;6.70;88.90
39519;DHT22;25200;53.394;10.414;2022-11-12T09:30:48;6.70;88.60
39519;DHT22;25200;53.394;10.414;2022-11-12T09:33:16;6.70;88.90
39519;DHT22;25200;53.394;10.414;2022-11-12T09:35:42;6.80;89.00
39519;DHT22;25200;53.394;10.414;2022-11-12T09:38:08;6.80;88.30
39519;DHT22;25200;53.394;10.414;2022-11-12T09:45:51;6.90;89.00
39519;DHT22;25200;53.394;10.414;2022-11-12T09:48:23;7.00;89.00
39519;DHT22;25200;53.394;10.414;2022-11-12T09:51:35;7.00;88.60
39519;DHT22;25200;53.394;10.414;2022-11-12T09:54:17;7.10;89.80
39519;DHT22;25200;53.394;10.414;2022-11-12T09:56:43;7.10;88.40
39519;DHT22;25200;53.394;10.414;2022-11-12T09:59:12;7.20;88.70
39519;DHT22;25200;53.394;10.414;2022-11-12T10:04:22;7.30;89.00
39519;DHT22;25200;53.394;10.414;2022-11-12T10:10:09;7.50;88.40
39519;DHT22;25200;53.394;10.414;2022-11-12T10:15:29;7.70;91.00
39519;DHT22;25200;53.394;10.414;2022-11-12T10:21:22;7.90;87.90
39519;DHT22;25200;53.394;10.414;2022-11-12T10:23:52;7.90;87.60
39519;DHT22;25200;53.394;10.414;2022-11-12T10:26:20;8.00;87.20
39519;DHT22;25200;53.394;10.414;2022-11-12T10:29:06;8.00;87.10
39519;DHT22;25200;53.394;10.414;2022-11-12T10:31:37;8.00;87.10
39519;DHT22;25200;53.394;10.414;2022-11-12T10:36:39;8.10;86.90
39519;DHT22;25200;53.394;10.414;2022-11-12T10:39:06;8.20;87.10
39519;DHT22;25200;53.394;10.414;2022-11-12T10:41:33;8.30;87.20
39519;DHT22;25200;53.394;10.414;2022-11-12T10:44:01;8.40;87.30
39519;DHT22;25200;53.394;10.414;2022-11-12T10:46:36;8.50;87.00
39519;DHT22;25200;53.394;10.414;2022-11-12T10:51:33;8.80;87.40
39519;DHT22;25200;53.394;10.414;2022-11-12T10:56:44;9.00;86.60
39519;DHT22;25200;53.394;10.414;2022-11-12T11:01:39;9.30;86.80
39519;DHT22;25200;53.394;10.414;2022-11-12T11:04:14;9.40;87.60
39519;DHT22;25200;53.394;10.414;2022-11-12T11:06:41;9.50;86.80
39519;DHT22;25200;53.394;10.414;2022-11-12T11:11:49;9.60;86.10
39519;DHT22;25200;53.394;10.414;2022-11-12T11:16:54;9.70;87.80
39519;DHT22;25200;53.394;10.414;2022-11-12T11:19:21;9.80;87.90
39519;DHT22;25200;53.394;10.414;2022-11-12T11:27:23;10.20;90.00
39519;DHT22;25200;53.394;10.414;2022-11-12T11:30:09;10.30;90.50
39519;DHT22;25200;53.394;10.414;2022-11-12T11:38:19;10.60;90.20
39519;DHT22;25200;53.394;10.414;2022-11-12T11:57:57;10.40;88.10
39519;DHT22;25200;53.394;10.414;2022-11-12T12:00:34;10.40;88.40
39519;DHT22;25200;53.394;10.414;2022-11-12T12:06:23;10.50;88.90
39519;DHT22;25200;53.394;10.414;2022-11-12T12:11:51;10.70;89.30
39519;DHT22;25200;53.394;10.414;2022-11-12T12:14:27;10.80;88.90
39519;DHT22;25200;53.394;10.414;2022-11-12T12:20:01;10.90;89.00
39519;DHT22;25200;53.394;10.414;2022-11-12T12:22:35;10.90;89.20
39519;DHT22;25200;53.394;10.414;2022-11-12T12:25:19;11.00;89.40
39519;DHT22;25200;53.394;10.414;2022-11-12T12:27:53;11.10;89.50
39519;DHT22;25200;53.394;10.414;2022-11-12T12:30:23;11.20;89.40
39519;DHT22;25200;53.394;10.414;2022-11-12T12:32:55;11.20;89.20
39519;DHT22;25200;53.394;10.414;2022-11-12T12:35:51;11.30;89.90
39519;DHT22;25200;53.394;10.414;2022-11-12T12:38:34;11.40;90.20
39519;DHT22;25200;53.394;10.414;2022-11-12T12:41:23;11.50;90.00
39519;DHT22;25200;53.394;10.414;2022-11-12T12:43:56;11.60;89.90
39519;DHT22;25200;53.394;10.414;2022-11-12T12:46:24;11.60;90.50
39519;DHT22;25200;53.394;10.414;2022-11-12T12:48:52;11.70;90.30
39519;DHT22;25200;53.394;10.414;2022-11-12T12:51:20;11.80;90.40
39519;DHT22;25200;53.394;10.414;2022-11-12T12:53:46;11.90;90.10
39519;DHT22;25200;53.394;10.414;2022-11-12T12:56:41;11.90;90.30
39519;DHT22;25200;53.394;10.414;2022-11-12T12:58:59;12.00;90.40
39519;DHT22;25200;53.394;10.414;2022-11-12T13:01:32;12.10;90.50
39519;DHT22;25200;53.394;10.414;2022-11-12T13:25:04;12.50;89.80
39519;DHT22;25200;53.394;10.414;2022-11-12T13:35:19;12.40;89.60
39519;DHT22;25200;53.394;10.414;2022-11-12T13:37:50;12.40;89.60
39519;DHT22;25200;53.394;10.414;2022-11-12T13:45:32;12.30;89.60
39519;DHT22;25200;53.394;10.414;2022-11-12T13:48:04;12.30;89.60
39519;DHT22;25200;53.394;10.414;2022-11-12T13:50:31;12.20;89.40
39519;DHT22;25200;53.394;10.414;2022-11-12T13:52:58;12.20;89.30
39519;DHT22;25200;53.394;10.414;2022-11-12T13:55:24;12.20;89.20
39519;DHT22;25200;53.394;10.414;2022-11-12T13:57:52;12.20;89.20
39519;DHT22;25200;53.394;10.414;2022-11-12T14:02:54;12.00;88.70
39519;DHT22;25200;53.394;10.414;2022-11-12T14:05:25;12.00;88.70
39519;DHT22;25200;53.394;10.414;2022-11-12T14:08:31;11.90;88.70
39519;DHT22;25200;53.394;10.414;2022-11-12T14:16:33;11.70;88.10
39519;DHT22;25200;53.394;10.414;2022-11-12T14:19:25;11.60;88.20
39519;DHT22;25200;53.394;10.414;2022-11-12T14:22:14;11.50;88.20
39519;DHT22;25200;53.394;10.414;2022-11-12T14:24:40;11.50;88.30
39519;DHT22;25200;53.394;10.414;2022-11-12T14:30:11;11.40;88.40
39519;DHT22;25200;53.394;10.414;2022-11-12T14:32:39;11.30;88.50
39519;DHT22;25200;53.394;10.414;2022-11-12T14:35:19;11.30;88.70
39519;DHT22;25200;53.394;10.414;2022-11-12T14:38:11;11.20;88.50
39519;DHT22;25200;53.394;10.414;2022-11-12T14:43:30;11.20;88.40
39519;DHT22;25200;53.394;10.414;2022-11-12T14:45:58;11.10;88.10
39519;DHT22;25200;53.394;10.414;2022-11-12T14:48:25;11.00;88.20
39519;DHT22;25200;53.394;10.414;2022-11-12T14:50:57;11.00;88.20
39519;DHT22;25200;53.394;10.414;2022-11-12T14:53:26;10.90;88.20
39519;DHT22;25200;53.394;10.414;2022-11-12T14:55:55;10.90;88.10
39519;DHT22;25200;53.394;10.414;2022-11-12T14:58:22;10.90;88.20
39519;DHT22;25200;53.394;10.414;2022-11-12T15:00:52;10.80;88.20
39519;DHT22;25200;53.394;10.414;2022-11-12T15:03:22;10.80;88.20
39519;DHT22;25200;53.394;10.414;2022-11-12T15:08:37;10.70;88.00
39519;DHT22;25200;53.394;10.414;2022-11-12T15:13:50;10.50;88.30
39519;DHT22;25200;53.394;10.414;2022-11-12T15:16:40;10.40;87.60
39519;DHT22;25200;53.394;10.414;2022-11-12T15:19:14;10.30;87.90
39519;DHT22;25200;53.394;10.414;2022-11-12T15:21:58;10.20;87.40
39519;DHT22;25200;53.394;10.414;2022-11-12T15:24:37;10.10;87.70
39519;DHT22;25200;53.394;10.414;2022-11-12T15:27:39;10.00;88.00
39519;DHT22;25200;53.394;10.414;2022-11-12T15:30:22;9.90;87.90
39519;DHT22;25200;53.394;10.414;2022-11-12T15:32:50;9.80;88.20
39519;DHT22;25200;53.394;10.414;2022-11-12T15:35:34;9.80;88.40
39519;DHT22;25200;53.394;10.414;2022-11-12T15:38:05;9.70;88.20
39519;DHT22;25200;53.394;10.414;2022-11-12T15:40:40;9.60;88.20
39519;DHT22;25200;53.394;10.414;2022-11-12T15:43:16;9.60;88.30
39519;DHT22;25200;53.394;10.414;2022-11-12T15:45:46;9.50;88.30
39519;DHT22;25200;53.394;10.414;2022-11-12T15:48:11;9.50;88.50
39519;DHT22;25200;53.394;10.414;2022-11-12T15:50:37;9.40;88.60
39519;DHT22;25200;53.394;10.414;2022-11-12T15:53:03;9.40;88.40
39519;DHT22;25200;53.394;10.414;2022-11-12T15:55:30;9.40;88.50
39519;DHT22;25200;53.394;10.414;2022-11-12T15:57:56;9.40;88.60
39519;DHT22;25200;53.394;10.414;2022-11-12T16:00:31;9.30;88.90
39519;DHT22;25200;53.394;10.414;2022-11-12T16:03:15;9.30;88.70
39519;DHT22;25200;53.394;10.414;2022-11-12T16:05:42;9.30;88.90
39519;DHT22;25200;53.394;10.414;2022-11-12T16:08:08;9.30;88.40
39519;DHT22;25200;53.394;10.414;2022-11-12T16:10:34;9.20;88.30
39519;DHT22;25200;53.394;10.414;2022-11-12T16:13:01;9.20;88.20
39519;DHT22;25200;53.394;10.414;2022-11-12T16:15:28;9.20;88.20
39519;DHT22;25200;53.394;10.414;2022-11-12T16:17:54;9.10;88.20
39519;DHT22;25200;53.394;10.414;2022-11-12T16:20:24;9.10;88.20
39519;DHT22;25200;53.394;10.414;2022-11-12T16:22:51;9.00;88.10
39519;DHT22;25200;53.394;10.414;2022-11-12T16:25:18;9.00;88.20
39519;DHT22;25200;53.394;10.414;2022-11-12T16:27:44;8.90;87.80
39519;DHT22;25200;53.394;10.414;2022-11-12T16:30:18;8.90;88.00
39519;DHT22;25200;53.394;10.414;2022-11-12T16:32:46;8.80;87.90
39519;DHT22;25200;53.394;10.414;2022-11-12T16:35:12;8.80;88.10
39519;DHT22;25200;53.394;10.414;2022-11-12T16:37:38;8.70;87.70
39519;DHT22;25200;53.394;10.414;2022-11-12T16:40:08;8.60;87.90
39519;DHT22;25200;53.394;10.414;2022-11-12T16:42:35;8.60;88.00
39519;DHT22;25200;53.394;10.414;2022-11-12T16:45:01;8.50;88.10
39519;DHT22;25200;53.394;10.414;2022-11-12T16:47:26;8.50;88.00
39519;DHT22;25200;53.394;10.414;2022-11-12T16:49:52;8.40;87.90
39519;DHT22;25200;53.394;10.414;2022-11-12T16:52:18;8.40;88.10
39519;DHT22;25200;53.394;10.414;2022-11-12T16:54:43;8.40;88.00
39519;DHT22;25200;53.394;10.414;2022-11-12T16:57:11;8.30;88.00
39519;DHT22;25200;53.394;10.414;2022-11-12T16:59:37;8.30;88.10
39519;DHT22;25200;53.394;10.414;2022-11-12T17:02:03;8.30;88.10
39519;DHT22;25200;53.394;10.414;2022-11-12T17:04:29;8.30;88.10
39519;DHT22;25200;53.394;10.414;2022-11-12T17:06:54;8.20;88.10
39519;DHT22;25200;53.394;10.414;2022-11-12T17:09:20;8.20;88.00
39519;DHT22;25200;53.394;10.414;2022-11-12T17:11:46;8.20;88.10
39519;DHT22;25200;53.394;10.414;2022-11-12T17:14:11;8.20;88.20
39519;DHT22;25200;53.394;10.414;2022-11-12T17:16:37;8.10;88.20
39519;DHT22;25200;53.394;10.414;2022-11-12T17:19:03;8.10;88.30
39519;DHT22;25200;53.394;10.414;2022-11-12T17:21:30;8.10;88.00
39519;DHT22;25200;53.394;10.414;2022-11-12T17:23:55;8.10;88.00
39519;DHT22;25200;53.394;10.414;2022-11-12T17:26:22;8.00;87.90
39519;DHT22;25200;53.394;10.414;2022-11-12T17:28:48;8.00;88.10
39519;DHT22;25200;53.394;10.414;2022-11-12T17:31:15;8.00;88.20
39519;DHT22;25200;53.394;10.414;2022-11-12T17:33:46;8.00;88.00
39519;DHT22;25200;53.394;10.414;2022-11-12T17:36:18;7.90;88.10
39519;DHT22;25200;53.394;10.414;2022-11-12T17:38:44;7.90;87.90
39519;DHT22;25200;53.394;10.414;2022-11-12T17:41:10;7.90;87.90
39519;DHT22;25200;53.394;10.414;2022-11-12T17:43:37;7.90;87.90
39519;DHT22;25200;53.394;10.414;2022-11-12T17:46:04;7.90;87.80
39519;DHT22;25200;53.394;10.414;2022-11-12T17:48:31;7.90;87.80